sensor_id;sensor_type;location;lat;lon;timestamp;P1;durP1;ratioP1;P2;durP2;ratioP2
49131;SDS011;35149;51.196;6.204;2022-12-07T00:01:46;14.30;;;11.13;;
49131;SDS011;35149;51.196;6.204;2022-12-07T00:04:18;16.23;;;11.75;;
49131;SDS011;35149;51.196;6.204;2022-12-07T00:06:45;15.20;;;12.80;;
49131;SDS011;35149;51.196;6.204;2022-12-07T00:09:21;16.25;;;13.13;;
49131;SDS011;35149;51.196;6.204;2022-12-07T00:11:49;17.15;;;13.00;;
49131;SDS011;35149;51.196;6.204;2022-12-07T00:14:18;16.30;;;13.20;;
49131;SDS011;35149;51.196;6.204;2022-12-07T00:16:50;16.85;;;13.55;;
49131;SDS011;35149;51.196;6.204;2022-12-07T00:19:18;17.65;;;13.80;;
49131;SDS011;35149;51.196;6.204;2022-12-07T00:21:52;17.45;;;12.35;;
49131;SDS011;35149;51.196;6.204;2022-12-07T00:24:18;14.27;;;11.82;;
49131;SDS011;35149;51.196;6.204;2022-12-07T00:26:48;14.52;;;12.10;;
49131;SDS011;35149;51.196;6.204;2022-12-07T00:29:16;14.75;;;12.85;;
49131;SDS011;35149;51.196;6.204;2022-12-07T00:31:47;13.77;;;11.65;;
49131;SDS011;35149;51.196;6.204;2022-12-07T00:34:16;14.90;;;12.88;;
49131;SDS011;35149;51.196;6.204;2022-12-07T00:36:49;16.85;;;12.80;;
49131;SDS011;35149;51.196;6.204;2022-12-07T00:39:20;14.30;;;12.82;;
49131;SDS011;35149;51.196;6.204;2022-12-07T00:41:52;18.75;;;13.90;;
49131;SDS011;35149;51.196;6.204;2022-12-07T00:44:19;17.67;;;12.98;;
49131;SDS011;35149;51.196;6.204;2022-12-07T00:46:45;17.50;;;12.98;;
49131;SDS011;35149;51.196;6.204;2022-12-07T00:49:15;16.10;;;12.75;;
49131;SDS011;35149;51.196;6.204;2022-12-07T00:51:41;15.82;;;13.05;;
49131;SDS011;35149;51.196;6.204;2022-12-07T00:54:10;16.08;;;12.35;;
49131;SDS011;35149;51.196;6.204;2022-12-07T00:56:42;15.75;;;12.73;;
49131;SDS011;35149;51.196;6.204;2022-12-07T00:59:12;16.02;;;12.45;;
49131;SDS011;35149;51.196;6.204;2022-12-07T01:01:41;17.90;;;13.25;;
49131;SDS011;35149;51.196;6.204;2022-12-07T01:04:09;17.10;;;13.43;;
49131;SDS011;35149;51.196;6.204;2022-12-07T01:06:36;15.65;;;13.43;;
49131;SDS011;35149;51.196;6.204;2022-12-07T01:09:06;17.98;;;14.25;;
49131;SDS011;35149;51.196;6.204;2022-12-07T01:11:33;18.55;;;14.55;;
49131;SDS011;35149;51.196;6.204;2022-12-07T01:14:02;18.73;;;15.30;;
49131;SDS011;35149;51.196;6.204;2022-12-07T01:16:31;17.30;;;14.10;;
49131;SDS011;35149;51.196;6.204;2022-12-07T01:18:59;19.42;;;15.13;;
49131;SDS011;35149;51.196;6.204;2022-12-07T01:21:27;17.55;;;14.75;;
49131;SDS011;35149;51.196;6.204;2022-12-07T01:23:58;18.58;;;14.80;;
49131;SDS011;35149;51.196;6.204;2022-12-07T01:26:25;17.20;;;14.30;;
49131;SDS011;35149;51.196;6.204;2022-12-07T01:28:58;18.17;;;14.52;;
49131;SDS011;35149;51.196;6.204;2022-12-07T01:31:28;19.70;;;14.75;;
49131;SDS011;35149;51.196;6.204;2022-12-07T01:33:56;17.10;;;14.40;;
49131;SDS011;35149;51.196;6.204;2022-12-07T01:38:59;16.35;;;14.32;;
49131;SDS011;35149;51.196;6.204;2022-12-07T01:41:30;16.27;;;14.50;;
49131;SDS011;35149;51.196;6.204;2022-12-07T01:46:49;20.65;;;14.50;;
49131;SDS011;35149;51.196;6.204;2022-12-07T01:52:03;16.20;;;13.43;;
49131;SDS011;35149;51.196;6.204;2022-12-07T01:54:42;18.02;;;14.95;;
49131;SDS011;35149;51.196;6.204;2022-12-07T01:57:11;14.88;;;12.55;;
49131;SDS011;35149;51.196;6.204;2022-12-07T01:59:39;14.98;;;13.38;;
49131;SDS011;35149;51.196;6.204;2022-12-07T02:02:12;15.80;;;13.38;;
49131;SDS011;35149;51.196;6.204;2022-12-07T02:04:46;15.80;;;13.88;;
49131;SDS011;35149;51.196;6.204;2022-12-07T02:07:15;16.95;;;13.55;;
49131;SDS011;35149;51.196;6.204;2022-12-07T02:09:45;16.73;;;12.90;;
49131;SDS011;35149;51.196;6.204;2022-12-07T02:12:14;15.07;;;12.95;;
49131;SDS011;35149;51.196;6.204;2022-12-07T02:14:41;15.65;;;12.75;;
49131;SDS011;35149;51.196;6.204;2022-12-07T02:17:21;14.25;;;12.77;;
49131;SDS011;35149;51.196;6.204;2022-12-07T02:20:05;14.88;;;12.45;;
49131;SDS011;35149;51.196;6.204;2022-12-07T02:22:45;16.55;;;12.90;;
49131;SDS011;35149;51.196;6.204;2022-12-07T02:28:31;14.70;;;12.05;;
49131;SDS011;35149;51.196;6.204;2022-12-07T02:31:08;13.07;;;11.52;;
49131;SDS011;35149;51.196;6.204;2022-12-07T02:33:45;14.70;;;12.35;;
49131;SDS011;35149;51.196;6.204;2022-12-07T02:36:25;15.10;;;12.93;;
49131;SDS011;35149;51.196;6.204;2022-12-07T02:38:58;15.18;;;12.70;;
49131;SDS011;35149;51.196;6.204;2022-12-07T02:41:30;16.05;;;12.93;;
49131;SDS011;35149;51.196;6.204;2022-12-07T02:44:03;15.60;;;12.70;;
49131;SDS011;35149;51.196;6.204;2022-12-07T02:46:38;18.85;;;13.80;;
49131;SDS011;35149;51.196;6.204;2022-12-07T02:49:10;16.38;;;13.13;;
49131;SDS011;35149;51.196;6.204;2022-12-07T02:51:40;17.90;;;12.60;;
49131;SDS011;35149;51.196;6.204;2022-12-07T02:54:16;15.88;;;13.05;;
49131;SDS011;35149;51.196;6.204;2022-12-07T02:56:52;15.65;;;13.02;;
49131;SDS011;35149;51.196;6.204;2022-12-07T03:02:24;13.85;;;12.23;;
49131;SDS011;35149;51.196;6.204;2022-12-07T03:11:04;14.85;;;12.27;;
49131;SDS011;35149;51.196;6.204;2022-12-07T03:13:48;16.67;;;12.43;;
49131;SDS011;35149;51.196;6.204;2022-12-07T03:16:24;17.77;;;12.40;;
49131;SDS011;35149;51.196;6.204;2022-12-07T03:18:56;14.63;;;12.23;;
49131;SDS011;35149;51.196;6.204;2022-12-07T03:21:31;14.60;;;12.88;;
49131;SDS011;35149;51.196;6.204;2022-12-07T03:24:04;15.60;;;13.90;;
49131;SDS011;35149;51.196;6.204;2022-12-07T03:26:38;16.40;;;13.20;;
49131;SDS011;35149;51.196;6.204;2022-12-07T03:29:12;13.93;;;11.30;;
49131;SDS011;35149;51.196;6.204;2022-12-07T03:31:47;17.63;;;12.70;;
49131;SDS011;35149;51.196;6.204;2022-12-07T03:34:24;13.82;;;11.88;;
49131;SDS011;35149;51.196;6.204;2022-12-07T03:37:07;13.85;;;12.15;;
49131;SDS011;35149;51.196;6.204;2022-12-07T03:39:39;14.23;;;12.60;;
49131;SDS011;35149;51.196;6.204;2022-12-07T03:42:15;13.45;;;11.60;;
49131;SDS011;35149;51.196;6.204;2022-12-07T03:44:42;16.80;;;12.45;;
49131;SDS011;35149;51.196;6.204;2022-12-07T03:47:13;19.02;;;13.35;;
49131;SDS011;35149;51.196;6.204;2022-12-07T03:49:45;15.75;;;12.50;;
49131;SDS011;35149;51.196;6.204;2022-12-07T03:52:22;13.32;;;11.45;;
49131;SDS011;35149;51.196;6.204;2022-12-07T03:55:21;13.55;;;10.98;;
49131;SDS011;35149;51.196;6.204;2022-12-07T03:57:49;13.60;;;11.52;;
49131;SDS011;35149;51.196;6.204;2022-12-07T04:00:19;12.30;;;11.00;;
49131;SDS011;35149;51.196;6.204;2022-12-07T04:02:46;14.55;;;11.45;;
49131;SDS011;35149;51.196;6.204;2022-12-07T04:05:13;13.15;;;11.48;;
49131;SDS011;35149;51.196;6.204;2022-12-07T04:07:40;15.57;;;12.85;;
49131;SDS011;35149;51.196;6.204;2022-12-07T04:10:13;19.90;;;12.55;;
49131;SDS011;35149;51.196;6.204;2022-12-07T04:12:39;14.50;;;12.10;;
49131;SDS011;35149;51.196;6.204;2022-12-07T04:15:09;17.15;;;12.30;;
49131;SDS011;35149;51.196;6.204;2022-12-07T04:17:36;16.77;;;12.05;;
49131;SDS011;35149;51.196;6.204;2022-12-07T04:20:05;14.40;;;12.02;;
49131;SDS011;35149;51.196;6.204;2022-12-07T04:22:33;13.05;;;10.82;;
49131;SDS011;35149;51.196;6.204;2022-12-07T04:24:59;14.77;;;11.73;;
49131;SDS011;35149;51.196;6.204;2022-12-07T04:27:26;15.68;;;13.02;;
49131;SDS011;35149;51.196;6.204;2022-12-07T04:29:53;15.50;;;12.32;;
49131;SDS011;35149;51.196;6.204;2022-12-07T04:32:22;14.75;;;12.63;;
49131;SDS011;35149;51.196;6.204;2022-12-07T04:34:51;14.90;;;11.73;;
49131;SDS011;35149;51.196;6.204;2022-12-07T04:37:21;14.00;;;11.07;;
49131;SDS011;35149;51.196;6.204;2022-12-07T04:39:48;12.88;;;10.48;;
49131;SDS011;35149;51.196;6.204;2022-12-07T04:42:15;15.73;;;11.70;;
49131;SDS011;35149;51.196;6.204;2022-12-07T04:44:42;12.52;;;11.23;;
49131;SDS011;35149;51.196;6.204;2022-12-07T04:47:09;13.93;;;11.30;;
49131;SDS011;35149;51.196;6.204;2022-12-07T04:49:35;12.05;;;9.73;;
49131;SDS011;35149;51.196;6.204;2022-12-07T04:52:02;11.57;;;10.25;;
49131;SDS011;35149;51.196;6.204;2022-12-07T04:54:29;14.07;;;10.25;;
49131;SDS011;35149;51.196;6.204;2022-12-07T04:56:55;12.35;;;10.35;;
49131;SDS011;35149;51.196;6.204;2022-12-07T04:59:22;12.35;;;10.05;;
49131;SDS011;35149;51.196;6.204;2022-12-07T05:01:49;12.70;;;9.48;;
49131;SDS011;35149;51.196;6.204;2022-12-07T05:04:16;12.43;;;9.32;;
49131;SDS011;35149;51.196;6.204;2022-12-07T05:06:43;13.90;;;10.38;;
49131;SDS011;35149;51.196;6.204;2022-12-07T05:09:11;13.18;;;9.85;;
49131;SDS011;35149;51.196;6.204;2022-12-07T05:11:38;9.82;;;8.93;;
49131;SDS011;35149;51.196;6.204;2022-12-07T05:14:06;12.00;;;9.30;;
49131;SDS011;35149;51.196;6.204;2022-12-07T05:16:43;11.68;;;9.50;;
49131;SDS011;35149;51.196;6.204;2022-12-07T05:19:11;11.20;;;9.27;;
49131;SDS011;35149;51.196;6.204;2022-12-07T05:21:38;12.32;;;9.85;;
49131;SDS011;35149;51.196;6.204;2022-12-07T05:24:07;12.05;;;9.40;;
49131;SDS011;35149;51.196;6.204;2022-12-07T05:26:35;10.75;;;8.77;;
49131;SDS011;35149;51.196;6.204;2022-12-07T05:29:06;10.40;;;8.70;;
49131;SDS011;35149;51.196;6.204;2022-12-07T05:31:33;11.35;;;9.02;;
49131;SDS011;35149;51.196;6.204;2022-12-07T05:34:02;10.32;;;9.35;;
49131;SDS011;35149;51.196;6.204;2022-12-07T05:36:32;10.65;;;8.98;;
49131;SDS011;35149;51.196;6.204;2022-12-07T05:39:01;9.68;;;8.30;;
49131;SDS011;35149;51.196;6.204;2022-12-07T05:41:28;8.82;;;8.00;;
49131;SDS011;35149;51.196;6.204;2022-12-07T05:44:13;8.40;;;7.57;;
49131;SDS011;35149;51.196;6.204;2022-12-07T05:46:41;8.70;;;7.70;;
49131;SDS011;35149;51.196;6.204;2022-12-07T05:49:07;10.90;;;8.20;;
49131;SDS011;35149;51.196;6.204;2022-12-07T05:51:38;10.15;;;8.30;;
49131;SDS011;35149;51.196;6.204;2022-12-07T05:54:05;13.52;;;7.65;;
49131;SDS011;35149;51.196;6.204;2022-12-07T05:56:36;8.70;;;7.80;;
49131;SDS011;35149;51.196;6.204;2022-12-07T05:59:03;9.60;;;7.85;;
49131;SDS011;35149;51.196;6.204;2022-12-07T06:01:52;8.98;;;6.85;;
49131;SDS011;35149;51.196;6.204;2022-12-07T06:04:23;8.38;;;7.03;;
49131;SDS011;35149;51.196;6.204;2022-12-07T06:06:51;8.93;;;7.57;;
49131;SDS011;35149;51.196;6.204;2022-12-07T06:09:19;9.75;;;7.68;;
49131;SDS011;35149;51.196;6.204;2022-12-07T06:11:49;9.23;;;6.95;;
49131;SDS011;35149;51.196;6.204;2022-12-07T06:14:34;9.73;;;7.47;;
49131;SDS011;35149;51.196;6.204;2022-12-07T06:17:04;9.27;;;7.40;;
49131;SDS011;35149;51.196;6.204;2022-12-07T06:19:32;9.27;;;7.18;;
49131;SDS011;35149;51.196;6.204;2022-12-07T06:21:59;9.27;;;6.75;;
49131;SDS011;35149;51.196;6.204;2022-12-07T06:24:26;8.63;;;6.53;;
49131;SDS011;35149;51.196;6.204;2022-12-07T06:26:52;9.63;;;7.10;;
49131;SDS011;35149;51.196;6.204;2022-12-07T06:29:21;8.40;;;6.95;;
49131;SDS011;35149;51.196;6.204;2022-12-07T06:31:50;9.50;;;7.38;;
49131;SDS011;35149;51.196;6.204;2022-12-07T06:34:18;10.15;;;7.35;;
49131;SDS011;35149;51.196;6.204;2022-12-07T06:36:49;7.90;;;6.55;;
49131;SDS011;35149;51.196;6.204;2022-12-07T06:39:23;8.80;;;6.22;;
49131;SDS011;35149;51.196;6.204;2022-12-07T06:41:53;9.90;;;6.95;;
49131;SDS011;35149;51.196;6.204;2022-12-07T06:44:21;7.85;;;6.63;;
49131;SDS011;35149;51.196;6.204;2022-12-07T06:46:48;9.10;;;6.35;;
49131;SDS011;35149;51.196;6.204;2022-12-07T06:49:15;10.15;;;7.57;;
49131;SDS011;35149;51.196;6.204;2022-12-07T06:51:42;10.30;;;7.55;;
49131;SDS011;35149;51.196;6.204;2022-12-07T06:54:10;9.90;;;7.47;;
49131;SDS011;35149;51.196;6.204;2022-12-07T06:56:40;9.40;;;6.95;;
49131;SDS011;35149;51.196;6.204;2022-12-07T06:59:10;10.30;;;8.30;;
49131;SDS011;35149;51.196;6.204;2022-12-07T07:01:37;9.90;;;8.23;;
49131;SDS011;35149;51.196;6.204;2022-12-07T07:04:05;8.88;;;6.93;;
49131;SDS011;35149;51.196;6.204;2022-12-07T07:06:32;10.23;;;8.18;;
49131;SDS011;35149;51.196;6.204;2022-12-07T07:09:09;9.63;;;7.80;;
49131;SDS011;35149;51.196;6.204;2022-12-07T07:11:36;10.75;;;8.10;;
49131;SDS011;35149;51.196;6.204;2022-12-07T07:14:05;10.40;;;8.18;;
49131;SDS011;35149;51.196;6.204;2022-12-07T07:16:31;9.30;;;8.40;;
49131;SDS011;35149;51.196;6.204;2022-12-07T07:19:01;12.57;;;8.45;;
49131;SDS011;35149;51.196;6.204;2022-12-07T07:21:30;10.45;;;8.60;;
49131;SDS011;35149;51.196;6.204;2022-12-07T07:24:01;10.02;;;8.93;;
49131;SDS011;35149;51.196;6.204;2022-12-07T07:26:27;14.75;;;8.90;;
49131;SDS011;35149;51.196;6.204;2022-12-07T07:28:54;11.88;;;8.68;;
49131;SDS011;35149;51.196;6.204;2022-12-07T07:31:25;10.95;;;8.65;;
49131;SDS011;35149;51.196;6.204;2022-12-07T07:33:52;12.15;;;8.70;;
49131;SDS011;35149;51.196;6.204;2022-12-07T07:36:21;9.90;;;8.90;;
49131;SDS011;35149;51.196;6.204;2022-12-07T07:38:48;11.27;;;9.65;;
49131;SDS011;35149;51.196;6.204;2022-12-07T07:41:14;13.52;;;10.93;;
49131;SDS011;35149;51.196;6.204;2022-12-07T07:43:41;12.60;;;11.05;;
49131;SDS011;35149;51.196;6.204;2022-12-07T07:46:07;13.20;;;11.45;;
49131;SDS011;35149;51.196;6.204;2022-12-07T07:48:34;18.30;;;13.55;;
49131;SDS011;35149;51.196;6.204;2022-12-07T07:51:04;16.90;;;13.32;;
49131;SDS011;35149;51.196;6.204;2022-12-07T07:53:36;17.48;;;13.68;;
49131;SDS011;35149;51.196;6.204;2022-12-07T07:56:05;18.23;;;14.80;;
49131;SDS011;35149;51.196;6.204;2022-12-07T07:58:32;19.77;;;14.43;;
49131;SDS011;35149;51.196;6.204;2022-12-07T08:01:07;23.00;;;15.65;;
49131;SDS011;35149;51.196;6.204;2022-12-07T08:03:35;19.60;;;15.00;;
49131;SDS011;35149;51.196;6.204;2022-12-07T08:06:02;20.30;;;15.35;;
49131;SDS011;35149;51.196;6.204;2022-12-07T08:08:33;19.48;;;15.23;;
49131;SDS011;35149;51.196;6.204;2022-12-07T08:11:05;18.38;;;15.73;;
49131;SDS011;35149;51.196;6.204;2022-12-07T08:13:35;18.38;;;14.60;;
49131;SDS011;35149;51.196;6.204;2022-12-07T08:16:05;26.10;;;15.82;;
49131;SDS011;35149;51.196;6.204;2022-12-07T08:18:35;19.15;;;14.38;;
49131;SDS011;35149;51.196;6.204;2022-12-07T08:21:03;20.75;;;14.40;;
49131;SDS011;35149;51.196;6.204;2022-12-07T08:23:32;18.63;;;13.35;;
49131;SDS011;35149;51.196;6.204;2022-12-07T08:26:06;17.17;;;14.10;;
49131;SDS011;35149;51.196;6.204;2022-12-07T08:28:34;19.20;;;14.77;;
49131;SDS011;35149;51.196;6.204;2022-12-07T08:31:02;18.27;;;14.48;;
49131;SDS011;35149;51.196;6.204;2022-12-07T08:33:34;15.30;;;12.88;;
49131;SDS011;35149;51.196;6.204;2022-12-07T08:36:04;17.63;;;13.93;;
49131;SDS011;35149;51.196;6.204;2022-12-07T08:38:36;18.25;;;14.48;;
49131;SDS011;35149;51.196;6.204;2022-12-07T08:41:04;20.63;;;14.32;;
49131;SDS011;35149;51.196;6.204;2022-12-07T08:43:33;15.95;;;12.90;;
49131;SDS011;35149;51.196;6.204;2022-12-07T08:46:16;18.38;;;12.90;;
49131;SDS011;35149;51.196;6.204;2022-12-07T08:48:55;14.50;;;12.23;;
49131;SDS011;35149;51.196;6.204;2022-12-07T08:51:27;14.15;;;12.68;;
49131;SDS011;35149;51.196;6.204;2022-12-07T08:53:57;15.95;;;13.25;;
49131;SDS011;35149;51.196;6.204;2022-12-07T08:56:26;17.55;;;13.90;;
49131;SDS011;35149;51.196;6.204;2022-12-07T08:58:53;16.63;;;13.60;;
49131;SDS011;35149;51.196;6.204;2022-12-07T09:01:20;16.02;;;13.05;;
49131;SDS011;35149;51.196;6.204;2022-12-07T09:03:47;14.75;;;12.45;;
49131;SDS011;35149;51.196;6.204;2022-12-07T09:06:14;15.32;;;11.93;;
49131;SDS011;35149;51.196;6.204;2022-12-07T09:08:42;17.98;;;12.38;;
49131;SDS011;35149;51.196;6.204;2022-12-07T09:11:13;16.25;;;12.50;;
49131;SDS011;35149;51.196;6.204;2022-12-07T09:13:40;14.82;;;12.35;;
49131;SDS011;35149;51.196;6.204;2022-12-07T09:16:07;18.33;;;12.80;;
49131;SDS011;35149;51.196;6.204;2022-12-07T09:18:33;16.73;;;14.50;;
49131;SDS011;35149;51.196;6.204;2022-12-07T09:21:00;20.33;;;15.02;;
49131;SDS011;35149;51.196;6.204;2022-12-07T09:23:29;19.50;;;15.32;;
49131;SDS011;35149;51.196;6.204;2022-12-07T09:25:59;22.50;;;14.50;;
49131;SDS011;35149;51.196;6.204;2022-12-07T09:28:36;17.70;;;13.82;;
49131;SDS011;35149;51.196;6.204;2022-12-07T09:31:06;19.20;;;13.68;;
49131;SDS011;35149;51.196;6.204;2022-12-07T09:33:58;20.15;;;13.35;;
49131;SDS011;35149;51.196;6.204;2022-12-07T09:36:26;18.33;;;13.40;;
49131;SDS011;35149;51.196;6.204;2022-12-07T09:38:54;18.75;;;13.40;;
49131;SDS011;35149;51.196;6.204;2022-12-07T09:41:21;16.75;;;13.25;;
49131;SDS011;35149;51.196;6.204;2022-12-07T09:43:53;21.88;;;14.02;;
49131;SDS011;35149;51.196;6.204;2022-12-07T09:46:28;15.02;;;12.23;;
49131;SDS011;35149;51.196;6.204;2022-12-07T09:49:00;18.95;;;14.48;;
49131;SDS011;35149;51.196;6.204;2022-12-07T09:51:29;21.63;;;13.90;;
49131;SDS011;35149;51.196;6.204;2022-12-07T09:53:57;20.23;;;15.52;;
49131;SDS011;35149;51.196;6.204;2022-12-07T09:56:25;22.23;;;14.60;;
49131;SDS011;35149;51.196;6.204;2022-12-07T09:58:59;19.42;;;14.77;;
49131;SDS011;35149;51.196;6.204;2022-12-07T10:01:28;17.27;;;14.30;;
49131;SDS011;35149;51.196;6.204;2022-12-07T10:04:02;19.40;;;15.25;;
49131;SDS011;35149;51.196;6.204;2022-12-07T10:09:10;18.00;;;14.05;;
49131;SDS011;35149;51.196;6.204;2022-12-07T10:11:57;23.08;;;15.88;;
49131;SDS011;35149;51.196;6.204;2022-12-07T10:14:34;19.50;;;15.65;;
49131;SDS011;35149;51.196;6.204;2022-12-07T10:17:36;16.83;;;13.98;;
49131;SDS011;35149;51.196;6.204;2022-12-07T10:20:23;21.50;;;14.95;;
49131;SDS011;35149;51.196;6.204;2022-12-07T10:23:02;19.00;;;14.95;;
49131;SDS011;35149;51.196;6.204;2022-12-07T10:25:34;18.55;;;14.63;;
49131;SDS011;35149;51.196;6.204;2022-12-07T10:30:33;17.23;;;13.20;;
49131;SDS011;35149;51.196;6.204;2022-12-07T10:36:17;12.68;;;10.65;;
49131;SDS011;35149;51.196;6.204;2022-12-07T10:38:48;15.52;;;9.98;;
49131;SDS011;35149;51.196;6.204;2022-12-07T10:41:19;11.75;;;8.27;;
49131;SDS011;35149;51.196;6.204;2022-12-07T10:43:52;12.82;;;8.15;;
49131;SDS011;35149;51.196;6.204;2022-12-07T10:46:26;10.57;;;7.80;;
49131;SDS011;35149;51.196;6.204;2022-12-07T10:52:23;11.40;;;8.60;;
49131;SDS011;35149;51.196;6.204;2022-12-07T10:55:13;9.20;;;7.18;;
49131;SDS011;35149;51.196;6.204;2022-12-07T11:06:54;9.70;;;7.35;;
49131;SDS011;35149;51.196;6.204;2022-12-07T11:12:38;9.13;;;7.57;;
49131;SDS011;35149;51.196;6.204;2022-12-07T11:15:45;12.98;;;8.15;;
49131;SDS011;35149;51.196;6.204;2022-12-07T11:18:48;10.07;;;7.82;;
49131;SDS011;35149;51.196;6.204;2022-12-07T11:25:04;10.50;;;7.35;;
49131;SDS011;35149;51.196;6.204;2022-12-07T11:30:28;11.23;;;7.03;;
49131;SDS011;35149;51.196;6.204;2022-12-07T11:33:09;11.98;;;7.20;;
49131;SDS011;35149;51.196;6.204;2022-12-07T11:38:37;10.13;;;7.65;;
49131;SDS011;35149;51.196;6.204;2022-12-07T11:41:19;11.13;;;6.25;;
49131;SDS011;35149;51.196;6.204;2022-12-07T11:43:56;8.30;;;6.45;;
49131;SDS011;35149;51.196;6.204;2022-12-07T11:46:46;9.43;;;7.03;;
49131;SDS011;35149;51.196;6.204;2022-12-07T11:49:33;9.93;;;7.13;;
49131;SDS011;35149;51.196;6.204;2022-12-07T11:52:27;12.65;;;7.03;;
49131;SDS011;35149;51.196;6.204;2022-12-07T11:55:03;10.75;;;6.97;;
49131;SDS011;35149;51.196;6.204;2022-12-07T11:57:35;11.18;;;7.03;;
49131;SDS011;35149;51.196;6.204;2022-12-07T12:00:15;10.45;;;6.60;;
49131;SDS011;35149;51.196;6.204;2022-12-07T12:02:45;9.70;;;6.75;;
49131;SDS011;35149;51.196;6.204;2022-12-07T12:05:19;13.13;;;7.15;;
49131;SDS011;35149;51.196;6.204;2022-12-07T12:07:50;10.23;;;6.30;;
49131;SDS011;35149;51.196;6.204;2022-12-07T12:17:01;8.68;;;4.93;;
49131;SDS011;35149;51.196;6.204;2022-12-07T12:19:41;9.85;;;5.55;;
49131;SDS011;35149;51.196;6.204;2022-12-07T12:22:28;8.02;;;5.00;;
49131;SDS011;35149;51.196;6.204;2022-12-07T12:27:55;8.60;;;4.50;;
49131;SDS011;35149;51.196;6.204;2022-12-07T12:30:35;5.80;;;5.15;;
49131;SDS011;35149;51.196;6.204;2022-12-07T12:33:14;6.15;;;4.18;;
49131;SDS011;35149;51.196;6.204;2022-12-07T12:49:33;6.50;;;3.95;;
49131;SDS011;35149;51.196;6.204;2022-12-07T12:57:37;6.82;;;4.55;;
49131;SDS011;35149;51.196;6.204;2022-12-07T13:00:20;9.35;;;4.97;;
49131;SDS011;35149;51.196;6.204;2022-12-07T13:02:50;8.05;;;4.28;;
49131;SDS011;35149;51.196;6.204;2022-12-07T13:05:25;10.23;;;5.07;;
49131;SDS011;35149;51.196;6.204;2022-12-07T13:08:10;8.88;;;4.28;;
49131;SDS011;35149;51.196;6.204;2022-12-07T13:11:15;7.32;;;3.60;;
49131;SDS011;35149;51.196;6.204;2022-12-07T13:13:51;8.73;;;4.07;;
49131;SDS011;35149;51.196;6.204;2022-12-07T13:18:50;5.95;;;3.85;;
49131;SDS011;35149;51.196;6.204;2022-12-07T13:29:12;6.55;;;3.42;;
49131;SDS011;35149;51.196;6.204;2022-12-07T13:37:01;4.88;;;4.15;;
49131;SDS011;35149;51.196;6.204;2022-12-07T13:39:44;6.70;;;4.05;;
49131;SDS011;35149;51.196;6.204;2022-12-07T13:44:52;7.63;;;4.65;;
49131;SDS011;35149;51.196;6.204;2022-12-07T13:50:25;6.28;;;3.80;;
49131;SDS011;35149;51.196;6.204;2022-12-07T13:52:58;6.10;;;3.58;;
49131;SDS011;35149;51.196;6.204;2022-12-07T13:55:26;3.53;;;3.10;;
49131;SDS011;35149;51.196;6.204;2022-12-07T13:57:56;5.70;;;2.35;;
49131;SDS011;35149;51.196;6.204;2022-12-07T14:00:24;4.00;;;2.00;;
49131;SDS011;35149;51.196;6.204;2022-12-07T14:05:42;2.95;;;1.70;;
49131;SDS011;35149;51.196;6.204;2022-12-07T14:10:40;3.05;;;1.77;;
49131;SDS011;35149;51.196;6.204;2022-12-07T14:13:22;2.42;;;2.10;;
49131;SDS011;35149;51.196;6.204;2022-12-07T14:16:00;6.30;;;2.13;;
49131;SDS011;35149;51.196;6.204;2022-12-07T14:18:38;2.58;;;2.33;;
49131;SDS011;35149;51.196;6.204;2022-12-07T14:23:36;3.03;;;2.42;;
49131;SDS011;35149;51.196;6.204;2022-12-07T14:26:08;3.55;;;2.38;;
49131;SDS011;35149;51.196;6.204;2022-12-07T14:28:41;2.63;;;2.30;;
49131;SDS011;35149;51.196;6.204;2022-12-07T14:31:14;4.47;;;2.53;;
49131;SDS011;35149;51.196;6.204;2022-12-07T14:33:58;3.70;;;2.38;;
49131;SDS011;35149;51.196;6.204;2022-12-07T14:36:25;4.18;;;2.50;;
49131;SDS011;35149;51.196;6.204;2022-12-07T14:38:52;3.03;;;2.50;;
49131;SDS011;35149;51.196;6.204;2022-12-07T14:41:25;5.10;;;2.40;;
49131;SDS011;35149;51.196;6.204;2022-12-07T14:44:11;4.47;;;2.25;;
49131;SDS011;35149;51.196;6.204;2022-12-07T14:46:59;4.05;;;2.85;;
49131;SDS011;35149;51.196;6.204;2022-12-07T14:49:46;5.45;;;3.15;;
49131;SDS011;35149;51.196;6.204;2022-12-07T14:52:19;5.57;;;3.40;;
49131;SDS011;35149;51.196;6.204;2022-12-07T14:55:12;5.00;;;3.00;;
49131;SDS011;35149;51.196;6.204;2022-12-07T14:57:41;6.00;;;3.15;;
49131;SDS011;35149;51.196;6.204;2022-12-07T15:00:09;5.97;;;3.35;;
49131;SDS011;35149;51.196;6.204;2022-12-07T15:02:40;3.40;;;2.90;;
49131;SDS011;35149;51.196;6.204;2022-12-07T15:05:10;3.22;;;2.92;;
49131;SDS011;35149;51.196;6.204;2022-12-07T15:07:41;10.45;;;7.68;;
49131;SDS011;35149;51.196;6.204;2022-12-07T15:10:13;11.30;;;8.65;;
49131;SDS011;35149;51.196;6.204;2022-12-07T15:13:00;8.57;;;5.00;;
49131;SDS011;35149;51.196;6.204;2022-12-07T15:15:47;4.95;;;3.42;;
49131;SDS011;35149;51.196;6.204;2022-12-07T15:18:15;5.85;;;3.72;;
49131;SDS011;35149;51.196;6.204;2022-12-07T15:20:45;9.38;;;7.85;;
49131;SDS011;35149;51.196;6.204;2022-12-07T15:23:17;8.75;;;7.57;;
49131;SDS011;35149;51.196;6.204;2022-12-07T15:25:45;8.45;;;7.65;;
49131;SDS011;35149;51.196;6.204;2022-12-07T15:28:13;5.60;;;5.05;;
49131;SDS011;35149;51.196;6.204;2022-12-07T15:30:43;9.57;;;8.60;;
49131;SDS011;35149;51.196;6.204;2022-12-07T15:33:10;11.57;;;10.40;;
49131;SDS011;35149;51.196;6.204;2022-12-07T15:35:38;9.88;;;7.22;;
49131;SDS011;35149;51.196;6.204;2022-12-07T15:38:09;9.85;;;6.93;;
49131;SDS011;35149;51.196;6.204;2022-12-07T15:40:36;6.53;;;5.93;;
49131;SDS011;35149;51.196;6.204;2022-12-07T15:43:02;5.95;;;5.32;;
49131;SDS011;35149;51.196;6.204;2022-12-07T15:45:30;6.50;;;5.82;;
49131;SDS011;35149;51.196;6.204;2022-12-07T15:47:58;7.43;;;5.18;;
49131;SDS011;35149;51.196;6.204;2022-12-07T15:50:45;9.82;;;8.80;;
49131;SDS011;35149;51.196;6.204;2022-12-07T15:53:12;9.93;;;8.13;;
49131;SDS011;35149;51.196;6.204;2022-12-07T15:55:39;8.20;;;7.22;;
49131;SDS011;35149;51.196;6.204;2022-12-07T15:58:08;7.28;;;6.22;;
49131;SDS011;35149;51.196;6.204;2022-12-07T16:00:37;8.85;;;7.40;;
49131;SDS011;35149;51.196;6.204;2022-12-07T16:03:04;10.35;;;6.75;;
49131;SDS011;35149;51.196;6.204;2022-12-07T16:05:31;8.15;;;6.00;;
49131;SDS011;35149;51.196;6.204;2022-12-07T16:07:59;8.23;;;7.40;;
49131;SDS011;35149;51.196;6.204;2022-12-07T16:10:26;9.40;;;8.00;;
49131;SDS011;35149;51.196;6.204;2022-12-07T16:12:52;12.18;;;8.15;;
49131;SDS011;35149;51.196;6.204;2022-12-07T16:15:19;11.63;;;9.75;;
49131;SDS011;35149;51.196;6.204;2022-12-07T16:17:50;14.38;;;10.00;;
49131;SDS011;35149;51.196;6.204;2022-12-07T16:20:17;12.85;;;11.48;;
49131;SDS011;35149;51.196;6.204;2022-12-07T16:22:43;15.15;;;12.13;;
49131;SDS011;35149;51.196;6.204;2022-12-07T16:25:10;17.45;;;13.02;;
49131;SDS011;35149;51.196;6.204;2022-12-07T16:27:36;14.48;;;12.48;;
49131;SDS011;35149;51.196;6.204;2022-12-07T16:30:03;14.60;;;10.60;;
49131;SDS011;35149;51.196;6.204;2022-12-07T16:32:31;12.85;;;10.30;;
49131;SDS011;35149;51.196;6.204;2022-12-07T16:34:57;12.00;;;9.63;;
49131;SDS011;35149;51.196;6.204;2022-12-07T16:37:24;16.13;;;12.25;;
49131;SDS011;35149;51.196;6.204;2022-12-07T16:39:51;13.82;;;10.95;;
49131;SDS011;35149;51.196;6.204;2022-12-07T16:42:17;12.25;;;10.40;;
49131;SDS011;35149;51.196;6.204;2022-12-07T16:44:44;15.52;;;13.77;;
49131;SDS011;35149;51.196;6.204;2022-12-07T16:47:11;14.65;;;13.18;;
49131;SDS011;35149;51.196;6.204;2022-12-07T16:49:37;17.52;;;15.35;;